North Platte Regional Airport Lee Bird Field North Platte US
ICAO: KLBF
IATA: LBF
Category: Medium
Scheduled Services: Yes

Elevation: 2777 ft
TransAlt. 18000 ft.

Airport Communications:
ASOS:118.425
CLNC DEL:132.7
DENVER CNTR:132.7
COLUMBUS RDO:122.5
CTAF/UNICOM:123

KLBF Zoom In..

If Map Doesn't Load, Click Here

Runways:

(A) RW 12 length 8001 ft width 150 ft
---- / hdg 117

(B) RW 17 length 4436 ft width 100 ft
---- / hdg 172

(C) RW 30 length 8001 ft width 150 ft
ILS 111.50 / hdg 297

(D) RW 35 length 4436 ft width 100 ft
---- / hdg 352

Location; KLBF
Day. 21 / Time. 15.53 Zulu
* Altimeter: 30.34
* Temperature: 14° c. 57.2°f.
* Wind from: 030° Speed 09 kn.
Dewpoint: 07° c.
Visibility: 10 Statute Miles.
Clouds: Clear (automated report).

KLBF 211553Z AUTO 03009KT 10SM CLR 14/07 A3034 RMK AO2 SLP263 T01440072


Wind From 030°
Speed 09 kn.

 
 
jpsmedia.com for Web Design worldairports.se 2018   terms of use